Time;durP1;ratioP1;P1;durP2;ratioP2;P2;SDS_P1;SDS_P2;PMS_P1;PMS_P2;Temp;Humidity;BMP_temperature;BMP_pressure;BME280_temperature;BME280_humidity;BME280_pressure;Samples;Min_cycle;Max_cycle;Signal;HPM_P1;HPM_P2
2022/05/31 00:01:43;;;;;;;0.10;0.10;;;;;;;;;;5017731;28;20480;-85
2022/05/31 00:04:09;;;;;;;0.10;0.10;;;;;;;;;;5018008;28;20037;-86
2022/05/31 00:06:35;;;;;;;0.10;0.10;;;;;;;;;;5018168;28;20040;-85
2022/05/31 00:09:01;;;;;;;0.10;0.10;;;;;;;;;;5001640;28;20044;-85
2022/05/31 00:11:27;;;;;;;0.10;0.10;;;;;;;;;;5017984;28;20045;-85
2022/05/31 00:13:53;;;;;;;0.10;0.10;;;;;;;;;;5001635;28;20124;-85
2022/05/31 00:16:19;;;;;;;0.10;0.10;;;;;;;;;;5001355;28;20480;-85
2022/05/31 00:18:45;;;;;;;0.10;0.10;;;;;;;;;;5017818;28;20128;-85
2022/05/31 00:21:11;;;;;;;0.10;0.10;;;;;;;;;;5018017;28;20611;-85
2022/05/31 00:23:39;;;;;;;0.10;0.10;;;;;;;;;;5017729;28;20492;-85
2022/05/31 00:26:05;;;;;;;0.10;0.10;;;;;;;;;;5001502;28;20056;-85
2022/05/31 00:28:31;;;;;;;0.10;0.10;;;;;;;;;;5001290;28;20053;-85
2022/05/31 00:30:57;;;;;;;0.10;0.10;;;;;;;;;;5001622;28;20067;-86
2022/05/31 00:33:23;;;;;;;0.10;0.10;;;;;;;;;;5017757;28;20491;-85
2022/05/31 00:35:49;;;;;;;0.10;0.10;;;;;;;;;;5001405;28;20499;-89
2022/05/31 00:38:15;;;;;;;0.10;0.10;;;;;;;;;;5017758;28;20535;-89
2022/05/31 00:40:41;;;;;;;0.10;0.10;;;;;;;;;;5017648;28;20045;-86
2022/05/31 00:43:09;;;;;;;0.10;0.10;;;;;;;;;;5017617;28;20041;-86
2022/05/31 00:45:40;;;;;;;0.10;0.10;;;;;;;;;;5017459;28;20044;-87
2022/05/31 00:48:08;;;;;;;0.10;0.10;;;;;;;;;;5001288;28;20049;-86
2022/05/31 00:50:39;;;;;;;0.10;0.10;;;;;;;;;;5001170;28;20548;-87
2022/05/31 00:53:09;;;;;;;0.15;0.15;;;;;;;;;;5001174;28;20037;-85
2022/05/31 00:55:37;;;;;;;0.10;0.10;;;;;;;;;;5017586;28;20480;-85
2022/05/31 00:58:11;;;;;;;0.10;0.10;;;;;;;;;;5017355;28;20492;-86
2022/05/31 01:00:37;;;;;;;0.10;0.10;;;;;;;;;;5017673;28;20093;-85
2022/05/31 01:03:03;;;;;;;0.10;0.10;;;;;;;;;;5000988;28;20040;-85
2022/05/31 01:05:29;;;;;;;0.10;0.10;;;;;;;;;;5017483;28;20044;-86
2022/05/31 01:07:55;;;;;;;0.10;0.10;;;;;;;;;;5017458;28;20045;-86
2022/05/31 01:10:21;;;;;;;0.10;0.10;;;;;;;;;;5001064;28;20037;-86
2022/05/31 01:12:47;;;;;;;0.10;0.10;;;;;;;;;;5001126;28;20444;-86
2022/05/31 01:15:13;;;;;;;0.10;0.10;;;;;;;;;;5019985;28;20044;-85
2022/05/31 01:17:42;;;;;;;0.10;0.10;;;;;;;;;;5021160;28;20036;-86
2022/05/31 01:20:09;;;;;;;0.10;0.10;;;;;;;;;;5021190;28;20045;-86
2022/05/31 01:22:39;;;;;;;0.10;0.10;;;;;;;;;;5021027;28;20040;-85
2022/05/31 01:25:08;;;;;;;0.10;0.10;;;;;;;;;;5020857;28;20080;-85
2022/05/31 01:27:44;;;;;;;0.10;0.10;;;;;;;;;;5036952;28;20447;-85
2022/05/31 01:30:10;;;;;;;0.10;0.10;;;;;;;;;;5020985;28;20078;-85
2022/05/31 01:32:38;;;;;;;0.10;0.10;;;;;;;;;;5020792;28;20098;-86
2022/05/31 01:35:05;;;;;;;0.10;0.10;;;;;;;;;;5020779;28;20120;-85
2022/05/31 01:37:44;;;;;;;0.10;0.10;;;;;;;;;;5004720;28;20494;-85
2022/05/31 01:40:12;;;;;;;0.10;0.10;;;;;;;;;;5020950;28;20072;-85
2022/05/31 01:42:40;;;;;;;0.10;0.10;;;;;;;;;;5020685;28;20041;-86
2022/05/31 01:45:09;;;;;;;0.10;0.10;;;;;;;;;;5020859;28;20040;-85
2022/05/31 01:47:36;;;;;;;0.10;0.10;;;;;;;;;;5036872;28;20484;-85
2022/05/31 01:50:02;;;;;;;0.10;0.10;;;;;;;;;;5004003;28;20469;-85
2022/05/31 01:52:28;;;;;;;0.10;0.10;;;;;;;;;;5004170;28;20066;-86
2022/05/31 01:54:54;;;;;;;0.10;0.10;;;;;;;;;;5020683;28;20136;-85
2022/05/31 01:57:20;;;;;;;0.10;0.10;;;;;;;;;;5020406;28;20484;-86
2022/05/31 01:59:49;;;;;;;0.10;0.10;;;;;;;;;;5020223;28;20037;-85
2022/05/31 02:02:16;;;;;;;0.10;0.10;;;;;;;;;;5020198;28;20045;-86
2022/05/31 02:04:42;;;;;;;0.10;0.10;;;;;;;;;;5004261;28;20111;-84
2022/05/31 02:07:12;;;;;;;0.10;0.10;;;;;;;;;;5020072;28;20041;-84
2022/05/31 02:09:39;;;;;;;0.10;0.10;;;;;;;;;;5020395;28;20037;-84
2022/05/31 02:12:05;;;;;;;0.10;0.10;;;;;;;;;;5003866;28;20041;-84
2022/05/31 02:14:31;;;;;;;0.10;0.10;;;;;;;;;;5019918;28;20037;-85
2022/05/31 02:16:57;;;;;;;0.10;0.10;;;;;;;;;;5036625;28;20060;-85
2022/05/31 02:19:25;;;;;;;0.10;0.10;;;;;;;;;;5020224;28;20041;-84
2022/05/31 02:21:53;;;;;;;0.10;0.10;;;;;;;;;;5036278;28;20069;-85
2022/05/31 02:24:19;;;;;;;0.10;0.10;;;;;;;;;;5020031;28;20108;-84
2022/05/31 02:26:45;;;;;;;0.10;0.10;;;;;;;;;;5019645;28;20044;-85
2022/05/31 02:29:12;;;;;;;0.10;0.10;;;;;;;;;;5019453;28;20053;-88
2022/05/31 02:31:39;;;;;;;0.10;0.10;;;;;;;;;;5020111;28;20403;-85
2022/05/31 02:34:05;;;;;;;0.10;0.10;;;;;;;;;;5036230;28;20076;-85
2022/05/31 02:36:31;;;;;;;0.10;0.10;;;;;;;;;;5035982;28;20045;-86
2022/05/31 02:38:57;;;;;;;0.10;0.10;;;;;;;;;;5019620;28;20120;-86
2022/05/31 02:41:23;;;;;;;0.10;0.10;;;;;;;;;;5019589;28;20079;-86
2022/05/31 02:43:49;;;;;;;0.10;0.10;;;;;;;;;;5019358;28;20076;-85
2022/05/31 02:46:15;;;;;;;0.20;0.20;;;;;;;;;;5019418;28;20037;-86
2022/05/31 02:48:41;;;;;;;0.10;0.10;;;;;;;;;;5019332;28;20041;-85
2022/05/31 02:51:07;;;;;;;0.10;0.10;;;;;;;;;;5019363;28;20068;-85
2022/05/31 02:53:33;;;;;;;0.10;0.10;;;;;;;;;;5019292;28;20042;-86
2022/05/31 02:55:59;;;;;;;0.10;0.10;;;;;;;;;;5019249;28;20037;-85
2022/05/31 02:58:25;;;;;;;0.10;0.10;;;;;;;;;;5035882;28;20048;-85
2022/05/31 03:00:51;;;;;;;0.10;0.10;;;;;;;;;;5003063;28;20464;-84
2022/05/31 03:03:17;;;;;;;0.10;0.10;;;;;;;;;;5019015;28;20044;-85
2022/05/31 03:05:43;;;;;;;0.10;0.10;;;;;;;;;;5002713;28;20049;-85
2022/05/31 03:08:09;;;;;;;0.10;0.10;;;;;;;;;;5035313;28;20037;-85
2022/05/31 03:10:37;;;;;;;0.10;0.10;;;;;;;;;;5019098;28;20045;-85
2022/05/31 03:13:03;;;;;;;0.10;0.10;;;;;;;;;;5002603;28;20037;-84
2022/05/31 03:15:29;;;;;;;0.10;0.10;;;;;;;;;;5002716;28;20040;-86
2022/05/31 03:18:02;;;;;;;0.10;0.10;;;;;;;;;;5018743;28;20083;-86
2022/05/31 03:20:30;;;;;;;0.10;0.10;;;;;;;;;;5018779;28;20492;-86
2022/05/31 03:23:17;;;;;;;0.10;0.10;;;;;;;;;;5019030;28;20596;-87
2022/05/31 03:25:43;;;;;;;0.10;0.10;;;;;;;;;;5025067;28;20400;-86
2022/05/31 03:28:09;;;;;;;0.10;0.10;;;;;;;;;;5018127;28;20064;-85
2022/05/31 03:30:36;;;;;;;0.10;0.10;;;;;;;;;;5002472;28;20041;-85
2022/05/31 03:33:02;;;;;;;0.10;0.10;;;;;;;;;;5018793;28;20120;-85
2022/05/31 03:35:28;;;;;;;0.10;0.10;;;;;;;;;;5018527;28;20545;-86
2022/05/31 03:37:54;;;;;;;0.10;0.10;;;;;;;;;;5018118;28;20041;-84
2022/05/31 03:43:05;;;;;;;0.10;0.10;;;;;;;;;;5021062;28;20045;-84
2022/05/31 03:45:38;;;;;;;0.10;0.10;;;;;;;;;;5001896;28;20095;-84
2022/05/31 03:48:05;;;;;;;0.10;0.10;;;;;;;;;;5018415;28;20066;-84
2022/05/31 03:50:31;;;;;;;0.10;0.10;;;;;;;;;;5034738;28;20084;-86
2022/05/31 03:52:57;;;;;;;0.10;0.10;;;;;;;;;;5018173;28;20043;-85
2022/05/31 03:55:23;;;;;;;0.10;0.10;;;;;;;;;;5013220;28;20041;-85
2022/05/31 03:57:49;;;;;;;0.10;0.10;;;;;;;;;;4982310;28;20484;-86
2022/05/31 04:00:15;;;;;;;0.10;0.10;;;;;;;;;;5001354;28;20041;-87
2022/05/31 04:02:43;;;;;;;0.10;0.10;;;;;;;;;;5015616;28;20473;-87
2022/05/31 04:05:09;;;;;;;0.10;0.10;;;;;;;;;;5018287;28;20377;-87
2022/05/31 04:07:35;;;;;;;0.10;0.10;;;;;;;;;;5017885;28;20037;-87
2022/05/31 04:10:05;;;;;;;0.10;0.10;;;;;;;;;;5018164;28;20047;-86
2022/05/31 04:12:34;;;;;;;0.10;0.10;;;;;;;;;;5001973;28;20044;-86
2022/05/31 04:15:00;;;;;;;0.10;0.10;;;;;;;;;;5018456;28;20033;-87
2022/05/31 04:17:26;;;;;;;0.10;0.10;;;;;;;;;;5018003;28;20487;-87
2022/05/31 04:19:52;;;;;;;0.10;0.10;;;;;;;;;;5017874;28;20097;-87
2022/05/31 04:22:18;;;;;;;0.10;0.10;;;;;;;;;;5000677;28;20057;-86
2022/05/31 04:24:44;;;;;;;0.10;0.10;;;;;;;;;;5017929;28;20076;-86
2022/05/31 04:27:15;;;;;;;0.10;0.10;;;;;;;;;;5017686;28;20041;-86
2022/05/31 04:29:41;;;;;;;0.10;0.10;;;;;;;;;;5017848;28;20045;-85
2022/05/31 04:32:07;;;;;;;0.10;0.10;;;;;;;;;;5017908;28;20056;-86
2022/05/31 04:34:33;;;;;;;0.10;0.10;;;;;;;;;;5017371;28;20575;-86
2022/05/31 04:37:00;;;;;;;0.10;0.10;;;;;;;;;;5017642;28;20128;-86
2022/05/31 04:39:26;;;;;;;0.10;0.10;;;;;;;;;;5017706;28;20037;-86
2022/05/31 04:41:52;;;;;;;0.10;0.10;;;;;;;;;;5001373;28;20583;-86
2022/05/31 04:44:18;;;;;;;0.10;0.10;;;;;;;;;;5001601;28;20033;-89
2022/05/31 04:46:44;;;;;;;0.10;0.10;;;;;;;;;;5001228;28;20166;-88
2022/05/31 04:49:10;;;;;;;0.10;0.10;;;;;;;;;;5018934;28;20044;-87
2022/05/31 04:51:36;;;;;;;0.10;0.10;;;;;;;;;;5021763;28;20496;-86
2022/05/31 04:54:03;;;;;;;0.10;0.10;;;;;;;;;;5021992;28;20127;-86
2022/05/31 04:56:29;;;;;;;0.10;0.10;;;;;;;;;;5005204;28;20048;-85
2022/05/31 04:58:55;;;;;;;0.10;0.10;;;;;;;;;;5021390;28;20041;-86
2022/05/31 05:01:21;;;;;;;0.10;0.10;;;;;;;;;;5021414;28;20041;-87
2022/05/31 05:03:47;;;;;;;0.10;0.10;;;;;;;;;;5005323;28;20055;-86
2022/05/31 05:06:13;;;;;;;0.10;0.10;;;;;;;;;;5021295;28;20041;-86
2022/05/31 05:08:39;;;;;;;0.10;0.10;;;;;;;;;;5021401;28;20059;-86
2022/05/31 05:11:07;;;;;;;0.10;0.10;;;;;;;;;;5021326;28;20512;-86
2022/05/31 05:13:34;;;;;;;0.10;0.10;;;;;;;;;;5021618;28;20325;-86
2022/05/31 05:16:00;;;;;;;0.10;0.10;;;;;;;;;;5021193;28;20091;-87
2022/05/31 05:18:26;;;;;;;0.10;0.10;;;;;;;;;;5020970;28;20041;-87
2022/05/31 05:20:52;;;;;;;0.10;0.10;;;;;;;;;;5021328;28;20045;-87
2022/05/31 05:23:18;;;;;;;0.10;0.10;;;;;;;;;;5004714;28;20072;-89
2022/05/31 05:25:50;;;;;;;0.10;0.10;;;;;;;;;;5005002;28;20134;-89
2022/05/31 05:31:01;;;;;;;0.10;0.10;;;;;;;;;;5023248;28;20059;-88
2022/05/31 05:33:27;;;;;;;0.10;0.10;;;;;;;;;;5004492;28;20145;-87
2022/05/31 05:35:53;;;;;;;0.10;0.10;;;;;;;;;;5004493;28;20216;-88
2022/05/31 05:38:19;;;;;;;0.10;0.10;;;;;;;;;;5004500;28;20041;-88
2022/05/31 05:40:47;;;;;;;0.10;0.10;;;;;;;;;;5020488;28;20070;-89
2022/05/31 05:43:13;;;;;;;0.30;0.30;;;;;;;;;;5037114;28;20480;-89
2022/05/31 05:45:39;;;;;;;0.10;0.10;;;;;;;;;;5005182;28;20048;-92
2022/05/31 05:48:05;;;;;;;0.10;0.10;;;;;;;;;;5026801;28;20048;-89
2022/05/31 05:50:31;;;;;;;0.10;0.10;;;;;;;;;;5009084;28;20079;-89
2022/05/31 05:52:59;;;;;;;0.10;0.10;;;;;;;;;;5005653;28;20041;-89
2022/05/31 05:55:25;;;;;;;0.10;0.10;;;;;;;;;;5037300;28;20365;-89
2022/05/31 05:57:51;;;;;;;0.10;0.10;;;;;;;;;;5008137;28;20107;-90
2022/05/31 06:00:17;;;;;;;0.10;0.10;;;;;;;;;;5023893;28;20049;-89
2022/05/31 06:02:43;;;;;;;0.10;0.10;;;;;;;;;;5004512;28;20128;-89
2022/05/31 06:05:21;;;;;;;0.10;0.10;;;;;;;;;;5003809;28;20049;-89
2022/05/31 06:07:48;;;;;;;0.10;0.10;;;;;;;;;;5020533;28;20100;-89
2022/05/31 06:10:14;;;;;;;0.28;0.28;;;;;;;;;;5004237;28;20094;-88
2022/05/31 06:12:41;;;;;;;0.10;0.10;;;;;;;;;;5019835;28;20441;-88
2022/05/31 06:15:12;;;;;;;0.10;0.10;;;;;;;;;;5003577;28;20037;-88
2022/05/31 06:17:40;;;;;;;0.10;0.10;;;;;;;;;;5003669;28;20502;-88
2022/05/31 06:20:07;;;;;;;0.10;0.10;;;;;;;;;;5003510;28;20127;-89
2022/05/31 06:22:33;;;;;;;0.10;0.10;;;;;;;;;;5003613;28;20052;-89
2022/05/31 06:24:59;;;;;;;0.10;0.10;;;;;;;;;;5019791;28;20400;-87
2022/05/31 06:27:25;;;;;;;0.10;0.10;;;;;;;;;;5003483;28;20075;-87
2022/05/31 06:29:51;;;;;;;0.10;0.10;;;;;;;;;;5019684;28;20051;-88
2022/05/31 06:32:17;;;;;;;0.10;0.10;;;;;;;;;;5003424;28;20033;-87
2022/05/31 06:34:45;;;;;;;0.10;0.10;;;;;;;;;;5019619;28;20124;-90
2022/05/31 06:37:11;;;;;;;0.10;0.10;;;;;;;;;;5019601;28;20084;-88
2022/05/31 06:39:38;;;;;;;0.10;0.10;;;;;;;;;;5019464;28;20032;-88
2022/05/31 06:42:05;;;;;;;0.10;0.10;;;;;;;;;;5003485;28;20471;-89
2022/05/31 06:44:32;;;;;;;0.10;0.10;;;;;;;;;;5003131;28;20076;-89
2022/05/31 06:46:57;;;;;;;0.10;0.10;;;;;;;;;;5019507;28;20356;-89
2022/05/31 06:49:23;;;;;;;0.10;0.10;;;;;;;;;;5019355;28;20055;-89
2022/05/31 06:57:18;;;;;;;0.10;0.10;;;;;;;;;;5021918;28;20484;-90
2022/05/31 06:59:44;;;;;;;0.10;0.10;;;;;;;;;;5003115;28;20067;-89
2022/05/31 07:02:10;;;;;;;0.10;0.10;;;;;;;;;;5002702;28;20044;-89
2022/05/31 07:04:37;;;;;;;0.10;0.10;;;;;;;;;;5002601;28;20056;-89
2022/05/31 07:07:03;;;;;;;0.10;0.10;;;;;;;;;;5019038;28;20549;-90
2022/05/31 07:09:29;;;;;;;0.10;0.10;;;;;;;;;;5002658;28;20480;-89
2022/05/31 07:11:56;;;;;;;0.10;0.10;;;;;;;;;;5002426;28;20048;-93
2022/05/31 07:14:23;;;;;;;0.10;0.10;;;;;;;;;;5019151;28;20125;-92
2022/05/31 07:16:49;;;;;;;0.10;0.10;;;;;;;;;;5003186;28;20033;-87
2022/05/31 07:19:15;;;;;;;0.10;0.10;;;;;;;;;;5035068;28;20536;-88
2022/05/31 07:21:41;;;;;;;0.10;0.10;;;;;;;;;;5018724;28;20368;-88
2022/05/31 07:24:07;;;;;;;0.10;0.10;;;;;;;;;;5002181;28;20045;-88
2022/05/31 07:26:33;;;;;;;0.10;0.10;;;;;;;;;;5002617;28;20041;-87
2022/05/31 07:28:59;;;;;;;0.10;0.10;;;;;;;;;;5018364;28;20118;-88
2022/05/31 07:31:26;;;;;;;0.10;0.10;;;;;;;;;;5002255;28;20037;-88
2022/05/31 07:33:52;;;;;;;0.10;0.10;;;;;;;;;;5018571;28;20053;-87
2022/05/31 07:36:19;;;;;;;0.10;0.10;;;;;;;;;;5035153;28;20047;-88
2022/05/31 07:38:46;;;;;;;0.10;0.10;;;;;;;;;;5002391;28;20045;-91
2022/05/31 07:41:11;;;;;;;0.10;0.10;;;;;;;;;;5034931;28;20500;-88
2022/05/31 07:43:37;;;;;;;0.10;0.10;;;;;;;;;;5018290;28;20044;-88
2022/05/31 07:46:05;;;;;;;0.10;0.10;;;;;;;;;;5018213;28;20621;-88
2022/05/31 07:48:32;;;;;;;0.10;0.10;;;;;;;;;;5001658;28;20049;-87
2022/05/31 07:50:59;;;;;;;0.10;0.10;;;;;;;;;;5018691;28;20369;-88
2022/05/31 07:53:25;;;;;;;0.10;0.10;;;;;;;;;;5001887;28;20033;-88
2022/05/31 07:55:57;;;;;;;0.10;0.10;;;;;;;;;;5018225;28;20494;-88
2022/05/31 07:58:32;;;;;;;0.10;0.10;;;;;;;;;;5001759;28;20060;-88
2022/05/31 08:00:59;;;;;;;0.10;0.10;;;;;;;;;;5019145;28;20048;-88
2022/05/31 08:03:25;;;;;;;0.10;0.10;;;;;;;;;;5001935;28;20088;-88
2022/05/31 08:05:51;;;;;;;0.10;0.10;;;;;;;;;;5001788;28;20041;-88
2022/05/31 08:08:17;;;;;;;0.10;0.10;;;;;;;;;;5018086;28;20094;-89
2022/05/31 08:10:43;;;;;;;0.10;0.10;;;;;;;;;;5001574;28;20040;-90
2022/05/31 08:13:09;;;;;;;0.10;0.10;;;;;;;;;;5017878;28;20037;-89
2022/05/31 08:15:35;;;;;;;0.10;0.10;;;;;;;;;;5001669;28;20037;-89
2022/05/31 08:18:01;;;;;;;0.10;0.10;;;;;;;;;;5034541;28;20124;-89
2022/05/31 08:20:27;;;;;;;0.10;0.10;;;;;;;;;;5017767;28;20048;-90
2022/05/31 08:22:53;;;;;;;0.10;0.10;;;;;;;;;;5017595;28;20056;-89
2022/05/31 08:25:20;;;;;;;0.10;0.10;;;;;;;;;;5001621;28;20480;-89
2022/05/31 08:27:47;;;;;;;0.10;0.10;;;;;;;;;;5001359;28;20096;-90
2022/05/31 08:30:13;;;;;;;0.10;0.10;;;;;;;;;;5001308;28;20048;-92
2022/05/31 08:32:39;;;;;;;0.10;0.10;;;;;;;;;;5001783;28;20134;-88
2022/05/31 08:35:05;;;;;;;0.10;0.10;;;;;;;;;;5001742;28;20095;-91
2022/05/31 08:37:31;;;;;;;0.10;0.10;;;;;;;;;;5001544;28;20394;-91
2022/05/31 08:39:57;;;;;;;0.10;0.10;;;;;;;;;;5017821;28;20126;-89
2022/05/31 08:42:26;;;;;;;0.10;0.10;;;;;;;;;;5001512;28;20508;-88
2022/05/31 08:44:57;;;;;;;0.10;0.10;;;;;;;;;;5034318;28;20045;-89
2022/05/31 08:47:31;;;;;;;0.10;0.10;;;;;;;;;;5017894;28;20041;-89
2022/05/31 08:53:07;;;;;;;0.10;0.10;;;;;;;;;;5033892;28;20045;-90
2022/05/31 08:58:22;;;;;;;0.10;0.10;;;;;;;;;;5033833;28;20041;-90
2022/05/31 09:00:48;;;;;;;0.10;0.10;;;;;;;;;;5017779;28;20086;-90
2022/05/31 09:03:19;;;;;;;0.10;0.10;;;;;;;;;;5001075;28;20486;-89
2022/05/31 09:05:52;;;;;;;0.10;0.10;;;;;;;;;;5017408;28;20040;-88
2022/05/31 09:08:30;;;;;;;0.10;0.10;;;;;;;;;;5033765;28;20049;-89
2022/05/31 09:10:59;;;;;;;0.10;0.10;;;;;;;;;;5001230;28;20052;-90
2022/05/31 09:13:36;;;;;;;0.10;0.10;;;;;;;;;;5033678;28;20135;-90
2022/05/31 09:16:10;;;;;;;0.10;0.10;;;;;;;;;;5017242;28;20040;-90
2022/05/31 09:18:52;;;;;;;0.10;0.10;;;;;;;;;;5017279;28;20223;-91
2022/05/31 09:21:22;;;;;;;0.20;0.20;;;;;;;;;;5001581;28;20048;-88
2022/05/31 09:23:48;;;;;;;0.10;0.10;;;;;;;;;;5000912;28;20607;-90
2022/05/31 09:26:29;;;;;;;0.10;0.10;;;;;;;;;;5017414;28;20048;-89
2022/05/31 09:28:56;;;;;;;0.20;0.20;;;;;;;;;;5000807;28;20053;-90
2022/05/31 09:31:30;;;;;;;0.10;0.10;;;;;;;;;;5017581;28;20084;-89
2022/05/31 09:34:08;;;;;;;0.10;0.10;;;;;;;;;;5000980;28;20161;-90
2022/05/31 09:36:40;;;;;;;0.10;0.10;;;;;;;;;;5020373;28;20076;-89
2022/05/31 09:39:22;;;;;;;0.10;0.10;;;;;;;;;;5005513;28;20484;-89
2022/05/31 09:41:50;;;;;;;0.10;0.10;;;;;;;;;;5004687;28;20037;-88
2022/05/31 09:44:17;;;;;;;0.10;0.10;;;;;;;;;;5020555;28;20041;-88
2022/05/31 09:47:02;;;;;;;0.10;0.10;;;;;;;;;;5005079;28;20056;-88
2022/05/31 09:49:36;;;;;;;0.10;0.10;;;;;;;;;;5020629;28;20183;-88
2022/05/31 09:52:04;;;;;;;0.10;0.10;;;;;;;;;;5005706;28;20041;-89
2022/05/31 09:57:24;;;;;;;0.10;0.10;;;;;;;;;;5023622;28;20094;-91
2022/05/31 09:59:50;;;;;;;0.10;0.10;;;;;;;;;;5005144;28;20109;-88
2022/05/31 10:02:30;;;;;;;0.10;0.10;;;;;;;;;;5026767;28;20048;-90
2022/05/31 10:05:15;;;;;;;0.10;0.10;;;;;;;;;;5030158;28;20496;-91
2022/05/31 10:07:41;;;;;;;0.10;0.10;;;;;;;;;;5027548;28;20090;-91
2022/05/31 10:10:16;;;;;;;0.17;0.17;;;;;;;;;;5030331;28;20067;-90
2022/05/31 10:12:52;;;;;;;0.10;0.10;;;;;;;;;;5024781;28;20043;-92
2022/05/31 10:15:34;;;;;;;0.10;0.10;;;;;;;;;;5029136;28;20033;-92
2022/05/31 10:18:04;;;;;;;0.10;0.10;;;;;;;;;;5011442;28;20037;-92
2022/05/31 10:20:34;;;;;;;0.10;0.10;;;;;;;;;;5034356;28;20084;-92
2022/05/31 10:23:13;;;;;;;0.10;0.10;;;;;;;;;;5027217;28;20087;-91
2022/05/31 10:25:53;;;;;;;0.10;0.10;;;;;;;;;;5004197;28;20534;-90
2022/05/31 10:28:29;;;;;;;0.10;0.10;;;;;;;;;;5003908;28;20524;-92
2022/05/31 10:31:03;;;;;;;0.10;0.10;;;;;;;;;;5003707;28;20041;-91
2022/05/31 10:33:29;;;;;;;0.10;0.10;;;;;;;;;;5003813;28;20118;-89
2022/05/31 10:36:15;;;;;;;0.10;0.10;;;;;;;;;;5003691;28;20473;-92
2022/05/31 10:38:41;;;;;;;0.13;0.13;;;;;;;;;;5019727;28;20076;-92
2022/05/31 10:41:08;;;;;;;0.10;0.10;;;;;;;;;;5003399;28;20041;-93
2022/05/31 10:43:40;;;;;;;0.10;0.10;;;;;;;;;;5003410;28;20129;-93
2022/05/31 10:46:19;;;;;;;0.10;0.10;;;;;;;;;;5019533;28;20082;-92
2022/05/31 10:48:49;;;;;;;0.10;0.10;;;;;;;;;;5003377;28;20041;-92
2022/05/31 10:51:33;;;;;;;0.10;0.10;;;;;;;;;;5003505;28;20045;-94
2022/05/31 10:54:08;;;;;;;0.10;0.10;;;;;;;;;;5019324;28;20041;-93
2022/05/31 10:56:51;;;;;;;0.10;0.10;;;;;;;;;;5003166;28;20045;-92
2022/05/31 10:59:25;;;;;;;0.10;0.10;;;;;;;;;;5003311;28;20081;-92
2022/05/31 11:02:17;;;;;;;0.10;0.10;;;;;;;;;;5019213;28;20033;-92
2022/05/31 11:04:58;;;;;;;0.10;0.10;;;;;;;;;;5019273;28;20072;-93
2022/05/31 11:07:24;;;;;;;0.10;0.10;;;;;;;;;;5019284;28;20492;-92
2022/05/31 11:12:52;;;;;;;0.10;0.10;;;;;;;;;;5021388;28;20150;-92
2022/05/31 11:15:30;;;;;;;0.10;0.10;;;;;;;;;;5002701;28;20033;-92
2022/05/31 11:18:30;;;;;;;0.10;0.10;;;;;;;;;;5028007;28;20049;-96
2022/05/31 11:21:07;;;;;;;0.10;0.10;;;;;;;;;;5021722;28;20096;-96
2022/05/31 11:24:06;;;;;;;0.10;0.10;;;;;;;;;;5189680;23;20438;-95
2022/05/31 11:30:43;;;;;;;0.10;0.10;;;;;;;;;;5055229;28;20066;-95
2022/05/31 11:33:25;;;;;;;0.10;0.10;;;;;;;;;;5020063;28;20044;-94
2022/05/31 11:35:56;;;;;;;0.10;0.10;;;;;;;;;;5002986;28;20041;-93
2022/05/31 11:38:25;;;;;;;0.10;0.10;;;;;;;;;;5019664;28;20045;-94
2022/05/31 11:41:02;;;;;;;0.10;0.10;;;;;;;;;;5003798;28;20037;-95
2022/05/31 11:43:41;;;;;;;0.10;0.10;;;;;;;;;;5019722;28;20048;-93
2022/05/31 11:46:10;;;;;;;0.10;0.10;;;;;;;;;;5002555;28;20083;-93
2022/05/31 11:48:39;;;;;;;0.10;0.10;;;;;;;;;;5002888;28;20376;-91
2022/05/31 11:51:29;;;;;;;0.10;0.10;;;;;;;;;;5019630;28;20309;-94
2022/05/31 11:54:01;;;;;;;0.10;0.10;;;;;;;;;;5018896;28;20452;-94
2022/05/31 11:56:33;;;;;;;0.10;0.10;;;;;;;;;;5002623;28;20099;-93
2022/05/31 11:58:59;;;;;;;;;;;;;;;;;;5018766;28;20048;-94
2022/05/31 12:01:29;;;;;;;0.10;0.10;;;;;;;;;;5018638;28;19917;-94
2022/05/31 12:03:55;;;;;;;0.10;0.10;;;;;;;;;;5018843;28;20195;-93
2022/05/31 12:06:21;;;;;;;0.10;0.10;;;;;;;;;;5018485;28;20523;-94
2022/05/31 12:08:50;;;;;;;0.10;0.10;;;;;;;;;;5018585;28;20297;-93
2022/05/31 12:11:19;;;;;;;0.10;0.10;;;;;;;;;;5002670;28;20045;-93
2022/05/31 12:13:45;;;;;;;0.10;0.10;;;;;;;;;;5002328;28;20044;-93
2022/05/31 12:16:11;;;;;;;0.20;0.15;;;;;;;;;;5002296;28;20178;-93
2022/05/31 12:19:14;;;;;;;0.10;0.10;;;;;;;;;;5002450;28;20040;-96
2022/05/31 12:21:46;;;;;;;0.10;0.10;;;;;;;;;;4991944;28;20039;-92
2022/05/31 12:24:16;;;;;;;0.10;0.10;;;;;;;;;;5012741;28;20052;-94
2022/05/31 12:26:48;;;;;;;0.20;0.20;;;;;;;;;;5002484;28;20045;-94
2022/05/31 12:29:22;;;;;;;0.10;0.10;;;;;;;;;;5036350;28;20040;-93
2022/05/31 12:31:51;;;;;;;0.10;0.10;;;;;;;;;;5019864;28;20349;-96
2022/05/31 12:34:20;;;;;;;0.10;0.10;;;;;;;;;;5005054;28;20083;-93
2022/05/31 12:37:19;;;;;;;0.10;0.10;;;;;;;;;;5019918;28;20079;-94
2022/05/31 12:39:48;;;;;;;0.10;0.10;;;;;;;;;;5035708;28;20056;-93
2022/05/31 12:42:26;;;;;;;0.10;0.10;;;;;;;;;;5002057;28;20041;-94
2022/05/31 12:45:10;;;;;;;0.10;0.10;;;;;;;;;;5035219;28;20472;-93
2022/05/31 12:47:36;;;;;;;0.10;0.10;;;;;;;;;;5002075;28;20048;-95
2022/05/31 12:50:11;;;;;;;0.20;0.20;;;;;;;;;;5020963;28;20041;-92
2022/05/31 12:55:28;;;;;;;0.10;0.10;;;;;;;;;;5021739;28;20033;-95
2022/05/31 13:01:06;;;;;;;0.20;0.20;;;;;;;;;;5054328;28;20041;-96
2022/05/31 13:03:53;;;;;;;0.10;0.10;;;;;;;;;;5036765;28;20460;-96
2022/05/31 13:06:29;;;;;;;0.10;0.10;;;;;;;;;;5035166;28;20037;-96
2022/05/31 13:08:59;;;;;;;0.10;0.10;;;;;;;;;;5150877;22;20118;-91
2022/05/31 13:22:16;;;;;;;0.10;0.10;;;;;;;;;;5044760;22;20051;-94
2022/05/31 13:25:02;;;;;;;0.10;0.10;;;;;;;;;;4958440;29;20054;-96
2022/05/31 13:27:53;;;;;;;0.10;0.10;;;;;;;;;;4943413;29;20079;-95
2022/05/31 13:30:50;;;;;;;0.10;0.10;;;;;;;;;;4952563;29;20050;-95
2022/05/31 13:33:24;;;;;;;0.10;0.10;;;;;;;;;;5076187;23;20074;-91
2022/05/31 13:36:16;;;;;;;0.20;0.20;;;;;;;;;;4961569;28;20482;-95
2022/05/31 13:38:43;;;;;;;0.10;0.10;;;;;;;;;;4967684;28;20119;-95
2022/05/31 13:41:18;;;;;;;0.10;0.10;;;;;;;;;;4960409;28;20039;-95
2022/05/31 13:43:51;;;;;;;0.10;0.10;;;;;;;;;;4960149;28;20043;-95
2022/05/31 13:46:26;;;;;;;0.10;0.10;;;;;;;;;;4959941;28;20035;-95
2022/05/31 13:48:53;;;;;;;0.10;0.10;;;;;;;;;;4960389;28;20490;-95
2022/05/31 13:51:26;;;;;;;0.10;0.10;;;;;;;;;;4962525;28;20433;-94
2022/05/31 13:53:53;;;;;;;0.10;0.10;;;;;;;;;;4967389;28;20137;-95
2022/05/31 13:56:23;;;;;;;0.10;0.10;;;;;;;;;;4975358;28;20106;-92
2022/05/31 13:58:51;;;;;;;0.10;0.10;;;;;;;;;;5261133;23;20046;-94
2022/05/31 14:01:39;;;;;;;0.10;0.10;;;;;;;;;;4980638;28;20042;-94
2022/05/31 14:04:44;;;;;;;0.10;0.10;;;;;;;;;;4986795;28;20505;-95
2022/05/31 14:07:37;;;;;;;0.10;0.10;;;;;;;;;;5002354;28;20046;-96
2022/05/31 14:10:05;;;;;;;0.20;0.20;;;;;;;;;;4980448;28;20126;-95
2022/05/31 14:12:33;;;;;;;0.10;0.10;;;;;;;;;;4997896;28;20145;-95
2022/05/31 14:15:06;;;;;;;0.10;0.10;;;;;;;;;;5001748;28;20082;-95
2022/05/31 14:17:49;;;;;;;0.10;0.10;;;;;;;;;;4994487;28;20126;-94
2022/05/31 14:20:31;;;;;;;0.10;0.10;;;;;;;;;;4978585;28;20034;-94
2022/05/31 14:23:07;;;;;;;0.10;0.10;;;;;;;;;;4977609;28;20509;-93
2022/05/31 14:25:36;;;;;;;0.10;0.10;;;;;;;;;;4963062;28;20490;-93
2022/05/31 14:28:03;;;;;;;0.10;0.10;;;;;;;;;;4963792;28;20377;-95
2022/05/31 14:30:39;;;;;;;0.20;0.20;;;;;;;;;;4962565;28;20079;-96
2022/05/31 14:33:08;;;;;;;0.30;0.30;;;;;;;;;;4979613;28;20043;-90
2022/05/31 14:35:37;;;;;;;0.10;0.10;;;;;;;;;;4961545;28;20120;-91
2022/05/31 14:38:04;;;;;;;0.10;0.10;;;;;;;;;;4993268;28;20097;-91
2022/05/31 14:40:31;;;;;;;0.10;0.10;;;;;;;;;;4977147;28;20429;-88
2022/05/31 14:43:13;;;;;;;0.10;0.10;;;;;;;;;;4976979;28;20042;-87
2022/05/31 14:45:46;;;;;;;0.10;0.10;;;;;;;;;;4977584;28;20038;-86
2022/05/31 14:48:47;;;;;;;0.10;0.10;;;;;;;;;;4977189;28;20490;-89
2022/05/31 14:51:22;;;;;;;0.10;0.10;;;;;;;;;;4899452;29;20044;-89
2022/05/31 14:53:52;;;;;;;0.20;0.20;;;;;;;;;;4963865;28;20050;-89
2022/05/31 14:56:22;;;;;;;0.10;0.10;;;;;;;;;;4977281;28;20129;-90
2022/05/31 14:58:48;;;;;;;0.10;0.10;;;;;;;;;;4976415;28;20509;-90
2022/05/31 15:01:25;;;;;;;0.13;0.13;;;;;;;;;;4960551;28;20042;-90
2022/05/31 15:03:57;;;;;;;0.10;0.10;;;;;;;;;;4976651;28;20478;-92
2022/05/31 15:06:26;;;;;;;0.10;0.10;;;;;;;;;;4977035;28;20042;-91
2022/05/31 15:09:05;;;;;;;0.10;0.10;;;;;;;;;;4977298;28;20406;-90
2022/05/31 15:19:45;;;;;;;0.20;0.20;;;;;;;;;;4979037;28;20101;-91
2022/05/31 15:22:11;;;;;;;0.20;0.20;;;;;;;;;;4976521;28;20120;-90
2022/05/31 15:24:41;;;;;;;0.20;0.20;;;;;;;;;;4960303;28;20485;-91
2022/05/31 15:27:09;;;;;;;0.10;0.10;;;;;;;;;;4960632;28;20050;-90
2022/05/31 15:29:35;;;;;;;0.20;0.20;;;;;;;;;;4960942;28;20038;-93
2022/05/31 15:32:02;;;;;;;0.20;0.20;;;;;;;;;;4960496;28;20141;-95
2022/05/31 15:34:30;;;;;;;0.10;0.10;;;;;;;;;;4959842;28;20065;-94
2022/05/31 15:36:57;;;;;;;0.10;0.10;;;;;;;;;;4960930;28;20039;-94
2022/05/31 15:39:23;;;;;;;0.20;0.20;;;;;;;;;;4977048;28;20053;-94
2022/05/31 15:41:52;;;;;;;0.17;0.13;;;;;;;;;;4963941;28;20038;-94
2022/05/31 15:44:18;;;;;;;0.20;0.20;;;;;;;;;;4976965;28;20039;-92
2022/05/31 15:46:44;;;;;;;0.10;0.10;;;;;;;;;;4960773;28;20048;-93
2022/05/31 15:49:12;;;;;;;0.10;0.10;;;;;;;;;;4976676;28;20037;-94
2022/05/31 15:51:42;;;;;;;0.20;0.20;;;;;;;;;;4960762;28;20053;-94